createdAt,value
2019-06-20T00:02:17.035Z,8.10
2019-06-20T00:07:10.194Z,9.73
2019-06-20T00:12:03.845Z,9.28
2019-06-20T00:16:59.397Z,10.03
2019-06-20T00:21:51.876Z,10.68
2019-06-20T00:26:45.093Z,11.48
2019-06-20T00:31:38.503Z,13.22
2019-06-20T00:36:32.018Z,12.80
2019-06-20T00:41:25.568Z,12.40
2019-06-20T00:46:18.709Z,14.15
2019-06-20T00:51:11.864Z,15.20
2019-06-20T00:56:05.466Z,14.55
2019-06-20T01:00:58.797Z,15.25
2019-06-20T01:05:52.752Z,14.55
2019-06-20T01:10:45.927Z,13.75
2019-06-20T01:15:39.444Z,14.23
2019-06-20T01:20:32.672Z,14.10
2019-06-20T01:25:33.376Z,14.40
2019-06-20T01:30:26.937Z,16.20
2019-06-20T01:35:20.097Z,16.87
2019-06-20T01:40:14.532Z,16.40
2019-06-20T01:45:08.070Z,16.32
2019-06-20T01:50:01.915Z,17.10
2019-06-20T01:54:55.125Z,17.62
2019-06-20T01:59:48.550Z,16.30
2019-06-20T02:04:41.769Z,16.45
2019-06-20T02:09:34.916Z,17.15
2019-06-20T02:14:28.548Z,18.27
2019-06-20T02:19:21.700Z,17.57
2019-06-20T02:24:14.881Z,18.45
2019-06-20T02:29:08.049Z,19.27
2019-06-20T02:34:01.268Z,20.40
2019-06-20T02:38:54.420Z,19.45
2019-06-20T02:43:47.640Z,18.27
2019-06-20T02:48:40.816Z,19.15
2019-06-20T02:53:34.066Z,21.15
2019-06-20T02:58:27.291Z,19.30
2019-06-20T03:03:20.517Z,18.98
2019-06-20T03:08:13.682Z,17.80
2019-06-20T03:13:09.423Z,20.57
2019-06-20T03:18:02.087Z,18.48
2019-06-20T03:22:55.337Z,20.48
2019-06-20T03:27:48.878Z,20.90
2019-06-20T03:32:42.114Z,21.12
2019-06-20T03:37:35.611Z,20.62
2019-06-20T03:42:28.753Z,19.82
2019-06-20T03:47:22.355Z,21.42
2019-06-20T03:52:15.820Z,22.73
2019-06-20T03:57:09.951Z,20.80
2019-06-20T04:02:03.431Z,18.40
2019-06-20T04:06:56.580Z,21.80
2019-06-20T04:11:49.808Z,22.82
2019-06-20T04:16:42.953Z,20.52
2019-06-20T04:21:36.208Z,20.12
2019-06-20T04:26:29.616Z,22.32
2019-06-20T04:31:23.104Z,19.55
2019-06-20T04:36:16.319Z,20.40
2019-06-20T04:41:11.244Z,19.63
2019-06-20T04:46:18.005Z,21.45
2019-06-20T04:51:11.220Z,21.60
2019-06-20T04:56:05.866Z,19.45
2019-06-20T05:01:00.241Z,20.80
2019-06-20T05:05:53.385Z,19.75
2019-06-20T05:10:46.894Z,18.60
2019-06-20T05:15:51.955Z,21.35
2019-06-20T05:20:36.533Z,22.05
2019-06-20T05:25:29.692Z,19.10
2019-06-20T05:30:22.942Z,19.42
2019-06-20T05:35:16.413Z,21.10
2019-06-20T05:40:11.401Z,17.45
2019-06-20T05:45:05.547Z,19.27
2019-06-20T05:49:58.766Z,18.25
2019-06-20T05:54:52.001Z,19.77
2019-06-20T05:59:45.186Z,18.77
2019-06-20T06:04:38.406Z,20.30
2019-06-20T06:09:31.648Z,17.67
2019-06-20T06:14:25.251Z,19.95
2019-06-20T06:19:18.721Z,18.12
2019-06-20T06:24:12.060Z,19.20
2019-06-20T06:29:05.367Z,17.98
2019-06-20T06:33:58.945Z,18.70
2019-06-20T06:38:52.466Z,18.40
2019-06-20T06:43:45.624Z,17.45
2019-06-20T06:48:38.889Z,18.40
2019-06-20T06:53:32.126Z,17.52
2019-06-20T06:58:25.413Z,17.05
2019-06-20T07:03:18.628Z,15.88
2019-06-20T07:08:12.184Z,19.52
2019-06-20T07:13:05.411Z,16.00
2019-06-20T07:17:58.569Z,16.00
2019-06-20T07:22:51.805Z,16.05
2019-06-20T07:27:45.346Z,14.40
2019-06-20T07:32:38.821Z,14.85
2019-06-20T07:37:31.997Z,13.95
2019-06-20T07:42:25.496Z,13.85
2019-06-20T07:47:19.053Z,12.03
2019-06-20T07:52:12.556Z,13.32
2019-06-20T07:57:06.785Z,12.23
2019-06-20T08:02:00.013Z,12.78
2019-06-20T08:06:53.356Z,12.65
2019-06-20T08:11:46.587Z,12.63
2019-06-20T08:16:40.084Z,12.93
2019-06-20T08:21:33.352Z,12.82
2019-06-20T08:26:26.768Z,14.47
2019-06-20T08:31:20.015Z,12.60
2019-06-20T08:36:13.517Z,10.88
2019-06-20T08:41:06.804Z,12.78
2019-06-20T08:46:00.053Z,11.38
2019-06-20T08:50:53.284Z,10.93
2019-06-20T08:55:46.863Z,8.93
2019-06-20T09:00:40.254Z,9.53
2019-06-20T09:05:33.554Z,9.70
2019-06-20T09:10:28.308Z,9.28
2019-06-20T09:15:21.615Z,9.18
2019-06-20T09:20:15.307Z,11.53
2019-06-20T09:25:08.734Z,12.33
2019-06-20T09:30:03.496Z,12.00
2019-06-20T09:34:56.961Z,10.60
2019-06-20T09:39:51.526Z,10.68
2019-06-20T09:44:45.012Z,10.50
2019-06-20T09:49:38.248Z,10.95
2019-06-20T09:54:31.716Z,10.03
2019-06-20T09:59:27.911Z,9.25
2019-06-20T10:04:21.599Z,10.08
2019-06-20T10:09:15.261Z,10.72
2019-06-20T10:14:08.427Z,10.15
2019-06-20T10:19:01.690Z,9.65
2019-06-20T10:23:55.993Z,10.05
2019-06-20T10:28:49.329Z,9.85
2019-06-20T10:33:42.572Z,10.13
2019-06-20T10:38:35.910Z,10.65
2019-06-20T10:43:29.139Z,13.28
2019-06-20T10:48:22.389Z,12.40
2019-06-20T10:53:15.615Z,12.33
2019-06-20T10:58:08.841Z,11.28
2019-06-20T11:03:02.081Z,11.83
2019-06-20T11:07:55.374Z,9.90
2019-06-20T11:12:54.836Z,10.05
2019-06-20T11:17:44.938Z,11.28
2019-06-20T11:22:39.812Z,11.60
2019-06-20T11:27:34.537Z,13.58
2019-06-20T11:32:27.973Z,12.70
2019-06-20T11:37:21.196Z,11.93
2019-06-20T11:42:15.556Z,12.47
2019-06-20T11:47:08.701Z,14.78
2019-06-20T11:52:05.208Z,10.65
2019-06-20T12:02:29.994Z,8.95
2019-06-20T12:07:23.286Z,11.05
2019-06-20T12:12:16.800Z,11.03
2019-06-20T12:17:10.008Z,8.78
2019-06-20T12:22:03.181Z,11.03
2019-06-20T12:26:56.412Z,10.48
2019-06-20T12:31:49.574Z,9.70
2019-06-20T12:36:42.873Z,12.30
2019-06-20T12:41:36.454Z,12.40
2019-06-20T12:46:30.017Z,13.85
2019-06-20T12:51:23.244Z,17.65
2019-06-20T12:56:16.786Z,17.60
2019-06-20T13:01:10.402Z,15.78
2019-06-20T13:06:03.624Z,13.40
2019-06-20T13:10:56.860Z,14.80
2019-06-20T13:15:50.402Z,12.90
2019-06-20T13:20:44.247Z,11.33
2019-06-20T13:25:37.770Z,7.92
2019-06-20T13:30:32.438Z,6.70
2019-06-20T13:35:25.768Z,6.15
2019-06-20T13:40:23.633Z,6.78
2019-06-20T13:45:21.127Z,7.45
2019-06-20T13:50:14.433Z,6.10
2019-06-20T13:55:07.656Z,6.60
2019-06-20T14:00:01.519Z,6.50
2019-06-20T14:04:55.009Z,6.15
2019-06-20T14:09:48.765Z,6.53
2019-06-20T14:14:42.654Z,5.90
2019-06-20T14:19:37.385Z,4.80
2019-06-20T14:24:30.605Z,5.05
2019-06-20T14:29:24.092Z,4.53
2019-06-20T14:34:17.265Z,5.05
2019-06-20T14:39:10.837Z,4.20
2019-06-20T14:44:04.140Z,5.03
2019-06-20T14:48:57.380Z,5.17
2019-06-20T14:53:50.687Z,5.28
2019-06-20T14:58:44.950Z,5.50
2019-06-20T15:03:38.337Z,5.55
2019-06-20T15:08:31.574Z,6.42
2019-06-20T15:13:25.123Z,6.30
2019-06-20T15:18:18.468Z,6.55
2019-06-20T15:23:11.909Z,5.92
2019-06-20T15:28:05.152Z,7.25
2019-06-20T15:33:07.859Z,6.75
2019-06-20T15:37:53.876Z,6.40
2019-06-20T15:42:49.576Z,6.58
2019-06-20T15:47:43.392Z,5.83
2019-06-20T15:52:36.641Z,5.12
2019-06-20T15:57:29.873Z,5.10
2019-06-20T16:02:23.105Z,5.08
2019-06-20T16:07:16.735Z,5.25
2019-06-20T16:12:09.919Z,5.90
2019-06-20T16:17:03.535Z,5.40
2019-06-20T16:21:59.569Z,5.92
2019-06-20T16:26:52.719Z,5.83
2019-06-20T16:31:45.880Z,5.47
2019-06-20T16:36:39.133Z,5.25
2019-06-20T16:41:32.608Z,6.37
2019-06-20T16:46:25.859Z,6.20
2019-06-20T16:51:19.456Z,6.73
2019-06-20T16:56:12.756Z,5.72
2019-06-20T17:01:06.041Z,6.92
2019-06-20T17:06:00.031Z,10.05
2019-06-20T17:10:53.264Z,6.65
2019-06-20T17:15:46.694Z,6.00
2019-06-20T17:20:40.262Z,4.12
2019-06-20T17:25:33.773Z,4.50
2019-06-20T17:30:27.053Z,3.92
2019-06-20T17:35:20.210Z,3.92
2019-06-20T17:40:14.722Z,5.33
2019-06-20T17:45:08.873Z,4.00
2019-06-20T17:50:02.145Z,4.20
2019-06-20T17:54:56.339Z,3.25
2019-06-20T17:59:49.673Z,3.87
2019-06-20T18:04:42.918Z,3.98
2019-06-20T18:09:36.624Z,3.60
2019-06-20T18:14:33.330Z,3.92
2019-06-20T18:19:25.261Z,4.00
2019-06-20T18:24:19.774Z,3.33
2019-06-20T18:29:12.957Z,3.62
2019-06-20T18:34:06.215Z,2.27
2019-06-20T18:38:59.372Z,2.70
2019-06-20T18:43:54.415Z,3.22
2019-06-20T18:48:47.926Z,4.95
2019-06-20T18:53:41.489Z,3.20
2019-06-20T18:58:34.969Z,3.15
2019-06-20T19:03:28.460Z,2.72
2019-06-20T19:08:21.622Z,3.25
2019-06-20T19:13:14.835Z,3.20
2019-06-20T19:18:07.994Z,3.10
2019-06-20T19:23:01.211Z,3.20
2019-06-20T19:27:54.624Z,3.10
2019-06-20T19:32:48.110Z,3.05
2019-06-20T19:37:41.265Z,2.87
2019-06-20T19:42:34.848Z,3.17
2019-06-20T19:47:28.776Z,3.00
2019-06-20T19:52:21.921Z,2.77
2019-06-20T19:57:15.408Z,2.98
2019-06-20T20:02:08.685Z,2.42
2019-06-20T20:07:01.836Z,3.25
2019-06-20T20:11:55.123Z,2.87
2019-06-20T20:16:48.301Z,2.98
2019-06-20T20:21:41.459Z,2.50
2019-06-20T20:26:34.972Z,3.27
2019-06-20T20:31:28.211Z,2.70
2019-06-20T20:36:25.175Z,2.97
2019-06-20T20:41:16.281Z,2.87
2019-06-20T20:46:09.499Z,3.25
2019-06-20T20:51:03.059Z,3.15
2019-06-20T20:55:56.291Z,2.80
2019-06-20T21:00:55.760Z,2.77
2019-06-20T21:05:51.792Z,4.78
2019-06-20T21:10:45.570Z,4.30
2019-06-20T21:15:38.800Z,4.40
2019-06-20T21:20:32.016Z,4.97
2019-06-20T21:25:25.163Z,4.12
2019-06-20T21:30:18.828Z,5.55
2019-06-20T21:35:12.696Z,4.65
2019-06-20T21:40:06.401Z,4.45
2019-06-20T21:45:01.391Z,4.17
2019-06-20T21:49:54.578Z,4.72
2019-06-20T21:54:47.832Z,4.35
2019-06-20T21:59:41.299Z,4.53
2019-06-20T22:04:34.516Z,4.45
2019-06-20T22:09:27.710Z,5.15
2019-06-20T22:14:21.177Z,4.33
2019-06-20T22:19:14.388Z,5.33
2019-06-20T22:24:07.620Z,5.95
2019-06-20T22:29:01.112Z,5.03
2019-06-20T22:33:54.337Z,4.85
2019-06-20T22:38:47.809Z,5.28
2019-06-20T22:43:41.227Z,4.67
2019-06-20T22:48:34.444Z,5.12
2019-06-20T22:53:27.594Z,5.50
2019-06-20T22:58:20.813Z,4.75
2019-06-20T23:03:14.041Z,5.30
2019-06-20T23:08:07.953Z,4.60
2019-06-20T23:13:02.044Z,5.12
2019-06-20T23:17:55.529Z,5.55
2019-06-20T23:22:48.751Z,4.70
2019-06-20T23:27:41.973Z,4.67
2019-06-20T23:32:35.193Z,4.50
2019-06-20T23:37:29.036Z,5.55
2019-06-20T23:42:22.596Z,5.50
2019-06-20T23:47:15.736Z,5.15
2019-06-20T23:52:13.527Z,5.53
2019-06-20T23:57:06.952Z,5.20
